createdAt,value
2023-01-18T00:02:40.201Z,1.92
2023-01-18T00:05:43.413Z,2.00
2023-01-18T00:08:46.470Z,3.63
2023-01-18T00:11:49.049Z,2.90
2023-01-18T00:14:52.604Z,3.17
2023-01-18T00:17:55.192Z,2.13
2023-01-18T00:21:02.042Z,3.40
2023-01-18T00:24:04.818Z,4.55
2023-01-18T00:27:10.785Z,4.22
2023-01-18T00:30:14.269Z,4.40
2023-01-18T00:33:17.142Z,3.88
2023-01-18T00:36:19.817Z,4.93
2023-01-18T00:39:22.666Z,4.95
2023-01-18T00:42:43.715Z,5.45
2023-01-18T00:45:46.385Z,4.77
2023-01-18T00:48:49.915Z,3.55
2023-01-18T00:51:52.561Z,2.92
2023-01-18T00:54:55.202Z,2.75
2023-01-18T00:57:57.906Z,3.65
2023-01-18T01:01:00.846Z,4.47
2023-01-18T01:04:22.431Z,3.90
2023-01-18T01:07:25.009Z,3.27
2023-01-18T01:10:27.995Z,2.70
2023-01-18T01:13:48.842Z,3.25
2023-01-18T01:17:10.776Z,3.07
2023-01-18T01:20:32.326Z,3.20
2023-01-18T01:23:53.546Z,3.40
2023-01-18T01:26:56.456Z,3.50
2023-01-18T01:29:59.373Z,5.22
2023-01-18T01:33:02.197Z,3.95
2023-01-18T01:36:08.018Z,3.03
2023-01-18T01:39:11.174Z,3.77
2023-01-18T01:42:13.943Z,3.08
2023-01-18T01:45:18.679Z,3.67
2023-01-18T01:48:21.603Z,3.63
2023-01-18T01:51:24.540Z,3.47
2023-01-18T01:54:51.388Z,4.05
2023-01-18T01:58:00.667Z,2.70
2023-01-18T02:01:03.443Z,2.55
2023-01-18T02:04:06.376Z,2.42
2023-01-18T02:07:09.196Z,3.20
2023-01-18T02:10:11.949Z,4.40
2023-01-18T02:13:16.249Z,2.55
2023-01-18T02:16:54.080Z,2.78
2023-01-18T02:20:02.582Z,3.83
2023-01-18T02:23:26.976Z,3.08
2023-01-18T02:26:57.117Z,2.25
2023-01-18T02:30:11.156Z,2.30
2023-01-18T02:33:33.480Z,1.58
2023-01-18T02:36:39.056Z,2.67
2023-01-18T02:39:49.536Z,2.92
2023-01-18T02:43:11.073Z,2.60
2023-01-18T02:46:39.028Z,2.63
2023-01-18T02:49:41.969Z,3.00
2023-01-18T02:52:51.678Z,2.30
2023-01-18T02:55:57.621Z,3.00
2023-01-18T02:59:07.507Z,3.75
2023-01-18T03:02:14.580Z,2.03
2023-01-18T03:05:18.666Z,3.13
2023-01-18T03:08:36.325Z,3.58
2023-01-18T03:11:51.307Z,2.17
2023-01-18T03:15:33.433Z,2.33
2023-01-18T03:19:01.617Z,2.17
2023-01-18T03:22:05.524Z,3.22
2023-01-18T03:25:11.713Z,2.57
2023-01-18T03:28:38.751Z,2.17
2023-01-18T03:32:15.131Z,2.45
2023-01-18T03:35:19.321Z,2.88
2023-01-18T03:38:22.654Z,3.08
2023-01-18T03:41:30.404Z,2.22
2023-01-18T03:44:39.566Z,3.03
2023-01-18T03:47:42.129Z,2.13
2023-01-18T03:50:56.416Z,2.03
2023-01-18T03:54:11.238Z,3.40
2023-01-18T03:57:23.460Z,3.40
2023-01-18T04:00:26.718Z,3.28
2023-01-18T04:03:29.300Z,3.83
2023-01-18T04:06:32.884Z,3.85
2023-01-18T04:09:35.668Z,2.67
2023-01-18T04:12:46.487Z,2.72
2023-01-18T04:15:49.713Z,3.35
2023-01-18T04:18:52.337Z,3.07
2023-01-18T04:21:55.269Z,3.25
2023-01-18T04:24:57.971Z,2.90
2023-01-18T04:28:00.663Z,3.67
2023-01-18T04:31:03.370Z,3.40
2023-01-18T04:34:06.032Z,3.25
2023-01-18T04:37:08.910Z,3.60
2023-01-18T04:40:12.482Z,3.58
2023-01-18T04:43:15.122Z,3.28
2023-01-18T04:46:18.355Z,4.13
2023-01-18T04:49:20.873Z,3.43
2023-01-18T04:52:24.257Z,3.42
2023-01-18T04:55:26.720Z,3.95
2023-01-18T04:58:29.577Z,5.53
2023-01-18T05:01:33.455Z,6.57
2023-01-18T05:04:36.902Z,5.43
2023-01-18T05:07:39.499Z,5.07
2023-01-18T05:10:42.252Z,6.75
2023-01-18T05:13:45.795Z,5.70
2023-01-18T05:16:48.511Z,5.95
2023-01-18T05:19:51.622Z,6.57
2023-01-18T05:22:54.521Z,5.78
2023-01-18T05:25:58.468Z,5.35
2023-01-18T05:29:01.249Z,6.13
2023-01-18T05:32:03.999Z,5.57
2023-01-18T05:35:07.356Z,3.92
2023-01-18T05:38:09.861Z,3.35
2023-01-18T05:41:12.655Z,4.82
2023-01-18T05:44:15.176Z,3.80
2023-01-18T05:47:18.084Z,5.07
2023-01-18T05:50:22.677Z,4.87
2023-01-18T05:53:25.969Z,5.22
2023-01-18T05:56:28.857Z,5.57
2023-01-18T05:59:31.464Z,5.90
2023-01-18T06:02:34.333Z,5.18
2023-01-18T06:05:37.100Z,12.45
2023-01-18T06:08:40.351Z,10.88
2023-01-18T06:11:43.106Z,8.13
2023-01-18T06:14:46.008Z,13.18
2023-01-18T06:17:48.836Z,17.15
2023-01-18T06:20:55.144Z,11.37
2023-01-18T06:23:57.911Z,6.50
2023-01-18T06:27:00.550Z,5.45
2023-01-18T06:30:06.389Z,5.77
2023-01-18T06:33:09.941Z,5.57
2023-01-18T06:36:12.598Z,9.85
2023-01-18T06:39:15.190Z,6.65
2023-01-18T06:42:18.107Z,5.43
2023-01-18T06:45:22.186Z,5.90
2023-01-18T06:48:26.481Z,6.75
2023-01-18T06:51:29.347Z,5.87
2023-01-18T06:54:31.873Z,5.55
2023-01-18T06:57:34.413Z,5.85
2023-01-18T07:00:37.567Z,6.20
2023-01-18T07:03:40.326Z,5.15
2023-01-18T07:06:42.898Z,6.65
2023-01-18T07:09:45.809Z,7.93
2023-01-18T07:12:50.864Z,8.27
2023-01-18T07:15:56.734Z,9.27
2023-01-18T07:19:01.845Z,13.60
2023-01-18T07:22:04.545Z,15.37
2023-01-18T07:25:07.553Z,12.82
2023-01-18T07:28:10.305Z,8.75
2023-01-18T07:31:13.471Z,5.93
2023-01-18T07:34:16.332Z,5.03
2023-01-18T07:37:18.958Z,5.43
2023-01-18T07:40:22.276Z,4.20
2023-01-18T07:43:25.091Z,8.07
2023-01-18T07:46:27.859Z,4.95
2023-01-18T07:49:30.510Z,3.67
2023-01-18T07:52:33.400Z,3.60
2023-01-18T07:55:38.889Z,3.70
2023-01-18T07:58:41.897Z,3.10
2023-01-18T08:01:45.797Z,3.53
2023-01-18T08:04:50.435Z,3.28
2023-01-18T08:07:54.094Z,3.42
2023-01-18T08:10:58.227Z,3.28
2023-01-18T08:14:01.038Z,3.33
2023-01-18T08:17:03.793Z,3.25
2023-01-18T08:20:09.427Z,2.92
2023-01-18T08:23:12.203Z,2.10
2023-01-18T08:26:15.494Z,3.17
2023-01-18T08:29:18.522Z,3.13
2023-01-18T08:32:21.156Z,4.53
2023-01-18T08:35:53.624Z,4.97
2023-01-18T08:38:59.323Z,4.60
2023-01-18T08:42:02.451Z,4.10
2023-01-18T08:45:05.546Z,2.70
2023-01-18T08:48:10.871Z,4.13
2023-01-18T08:51:13.500Z,3.50
2023-01-18T08:54:16.212Z,2.50
2023-01-18T08:57:19.049Z,3.83
2023-01-18T09:00:26.911Z,4.30
2023-01-18T09:03:29.670Z,1.93
2023-01-18T09:06:34.036Z,2.22
2023-01-18T09:09:36.602Z,2.85
2023-01-18T09:12:39.911Z,2.60
2023-01-18T09:15:42.416Z,3.15
2023-01-18T09:18:45.291Z,1.30
2023-01-18T09:21:49.870Z,2.85
2023-01-18T09:24:52.566Z,2.60
2023-01-18T09:27:55.168Z,1.58
2023-01-18T09:31:08.849Z,0.90
2023-01-18T09:34:19.972Z,1.20
2023-01-18T09:37:22.773Z,0.90
2023-01-18T09:40:39.686Z,0.65
2023-01-18T09:43:50.181Z,0.40
2023-01-18T09:47:05.366Z,0.70
2023-01-18T09:50:16.868Z,1.52
2023-01-18T09:53:47.546Z,1.52
2023-01-18T09:57:05.603Z,3.10
2023-01-18T10:00:20.620Z,2.10
2023-01-18T10:04:06.287Z,1.63
2023-01-18T10:07:16.290Z,1.53
2023-01-18T10:10:19.623Z,1.13
2023-01-18T10:13:35.387Z,1.13
2023-01-18T10:16:38.137Z,1.02
2023-01-18T10:19:41.540Z,1.35
2023-01-18T10:22:56.655Z,1.23
2023-01-18T10:26:07.963Z,1.00
2023-01-18T10:29:39.637Z,1.20
2023-01-18T10:32:58.760Z,0.73
2023-01-18T10:36:09.139Z,0.73
2023-01-18T10:39:43.735Z,0.50
2023-01-18T10:42:53.692Z,0.50
2023-01-18T10:45:56.761Z,0.60
2023-01-18T10:48:59.316Z,1.20
2023-01-18T10:52:29.926Z,0.95
2023-01-18T10:55:33.430Z,0.95
2023-01-18T10:58:45.569Z,1.10
2023-01-18T11:01:56.935Z,0.73
2023-01-18T11:05:04.461Z,0.80
2023-01-18T11:08:32.771Z,1.00
2023-01-18T11:11:54.040Z,1.40
2023-01-18T11:14:56.476Z,1.38
2023-01-18T11:18:03.497Z,2.47
2023-01-18T11:21:11.342Z,1.40
2023-01-18T11:24:37.926Z,3.08
2023-01-18T11:27:42.206Z,3.45
2023-01-18T11:31:11.138Z,2.97
2023-01-18T11:34:31.924Z,1.77
2023-01-18T11:37:40.275Z,2.22
2023-01-18T11:40:44.617Z,3.97
2023-01-18T11:44:03.040Z,4.27
2023-01-18T11:47:09.278Z,3.70
2023-01-18T11:50:36.322Z,3.20
2023-01-18T11:53:54.702Z,1.77
2023-01-18T11:57:03.080Z,2.95
2023-01-18T12:00:14.261Z,2.53
2023-01-18T12:03:43.419Z,2.60
2023-01-18T12:07:04.407Z,2.00
2023-01-18T12:10:17.596Z,1.85
2023-01-18T12:13:34.748Z,1.20
2023-01-18T12:17:15.484Z,1.13
2023-01-18T12:20:33.045Z,1.50
2023-01-18T12:24:17.239Z,1.33
2023-01-18T12:27:29.088Z,1.10
2023-01-18T12:30:49.517Z,1.20
2023-01-18T12:34:11.829Z,1.38
2023-01-18T12:37:44.748Z,1.30
2023-01-18T12:41:06.256Z,1.00
2023-01-18T12:44:32.144Z,0.68
2023-01-18T12:47:40.743Z,1.30
2023-01-18T12:50:48.923Z,0.87
2023-01-18T12:54:01.450Z,0.70
2023-01-18T12:57:04.588Z,0.68
2023-01-18T13:00:15.380Z,0.82
2023-01-18T13:03:25.013Z,1.17
2023-01-18T13:06:29.713Z,1.35
2023-01-18T13:09:37.798Z,1.40
2023-01-18T13:12:40.972Z,1.20
2023-01-18T13:15:52.551Z,1.05
2023-01-18T13:19:03.720Z,1.00
2023-01-18T13:22:31.775Z,0.77
2023-01-18T13:25:40.414Z,1.30
2023-01-18T13:28:44.186Z,1.20
2023-01-18T13:31:47.071Z,1.75
2023-01-18T13:35:22.273Z,1.90
2023-01-18T13:38:40.568Z,1.02
2023-01-18T13:42:08.681Z,2.97
2023-01-18T13:45:23.811Z,1.33
2023-01-18T13:48:57.637Z,1.52
2023-01-18T13:52:00.408Z,1.13
2023-01-18T13:55:23.296Z,1.20
2023-01-18T13:58:26.431Z,1.13
2023-01-18T14:01:35.720Z,0.98
2023-01-18T14:04:39.393Z,1.02
2023-01-18T14:07:46.568Z,1.70
2023-01-18T14:10:53.170Z,2.35
2023-01-18T14:13:55.757Z,0.73
2023-01-18T14:17:09.804Z,2.37
2023-01-18T14:20:51.938Z,1.63
2023-01-18T14:24:17.114Z,1.10
2023-01-18T14:27:27.465Z,0.77
2023-01-18T14:30:34.503Z,1.35
2023-01-18T14:33:41.405Z,1.75
2023-01-18T14:36:44.172Z,1.63
2023-01-18T14:39:47.058Z,1.50
2023-01-18T14:42:53.808Z,2.20
2023-01-18T14:46:21.319Z,1.35
2023-01-18T14:49:31.102Z,1.60
2023-01-18T14:52:34.752Z,2.33
2023-01-18T14:55:37.236Z,2.30
2023-01-18T14:58:51.159Z,3.60
2023-01-18T15:02:16.167Z,3.80
2023-01-18T15:05:21.049Z,1.38
2023-01-18T15:08:26.857Z,2.88
2023-01-18T15:11:29.666Z,4.85
2023-01-18T15:14:35.228Z,2.65
2023-01-18T15:17:38.173Z,5.15
2023-01-18T15:20:57.234Z,3.33
2023-01-18T15:24:06.081Z,1.80
2023-01-18T15:27:17.561Z,1.90
2023-01-18T15:30:23.964Z,2.10
2023-01-18T15:33:27.500Z,1.80
2023-01-18T15:36:30.281Z,2.03
2023-01-18T15:39:33.698Z,2.42
2023-01-18T15:42:51.253Z,2.08
2023-01-18T15:45:57.145Z,2.30
2023-01-18T15:49:00.051Z,2.97
2023-01-18T15:52:03.033Z,4.53
2023-01-18T15:55:08.796Z,4.03
2023-01-18T15:58:15.896Z,4.10
2023-01-18T16:01:21.324Z,3.63
2023-01-18T16:04:24.782Z,4.38
2023-01-18T16:07:37.899Z,5.10
2023-01-18T16:10:48.891Z,4.55
2023-01-18T16:13:58.215Z,4.07
2023-01-18T16:17:18.280Z,4.88
2023-01-18T16:20:21.377Z,4.07
2023-01-18T16:23:25.739Z,3.97
2023-01-18T16:26:31.115Z,4.85
2023-01-18T16:29:46.621Z,4.63
2023-01-18T16:32:49.910Z,4.70
2023-01-18T16:35:52.582Z,4.47
2023-01-18T16:38:55.664Z,5.60
2023-01-18T16:41:58.469Z,5.40
2023-01-18T16:45:01.443Z,5.63
2023-01-18T16:48:09.029Z,6.68
2023-01-18T16:51:17.428Z,6.65
2023-01-18T16:54:20.349Z,8.63
2023-01-18T16:57:24.252Z,7.82
2023-01-18T17:00:31.294Z,8.13
2023-01-18T17:03:36.201Z,8.70
2023-01-18T17:06:42.860Z,8.13
2023-01-18T17:09:49.224Z,7.97
2023-01-18T17:12:52.337Z,7.68
2023-01-18T17:15:55.340Z,8.20
2023-01-18T17:18:57.734Z,11.73
2023-01-18T17:22:00.873Z,11.85
2023-01-18T17:25:03.547Z,32.93
2023-01-18T17:28:08.727Z,26.08
2023-01-18T17:31:11.595Z,25.42
2023-01-18T17:34:17.370Z,23.43
2023-01-18T17:37:20.014Z,30.15
2023-01-18T17:40:31.042Z,28.98
2023-01-18T17:43:36.639Z,27.70
2023-01-18T17:46:39.419Z,33.28
2023-01-18T17:49:42.176Z,35.28
2023-01-18T17:52:44.955Z,26.42
2023-01-18T17:55:47.722Z,30.73
2023-01-18T17:58:52.228Z,26.35
2023-01-18T18:01:55.147Z,19.10
2023-01-18T18:04:59.412Z,12.53
2023-01-18T18:08:02.277Z,24.00
2023-01-18T18:11:10.397Z,27.48
2023-01-18T18:17:33.773Z,11.45
2023-01-18T18:20:38.376Z,15.63
2023-01-18T18:23:41.581Z,16.00
2023-01-18T18:26:44.474Z,13.57
2023-01-18T18:29:47.426Z,13.07
2023-01-18T18:32:50.443Z,17.38
2023-01-18T18:36:40.004Z,10.17
2023-01-18T18:43:03.602Z,10.63
2023-01-18T18:49:26.516Z,11.25
2023-01-18T18:52:29.181Z,10.75
2023-01-18T18:55:32.357Z,9.75
2023-01-18T18:58:36.928Z,13.57
2023-01-18T19:01:40.160Z,20.63
2023-01-18T19:04:43.329Z,22.83
2023-01-18T19:07:47.349Z,24.97
2023-01-18T19:10:51.393Z,23.27
2023-01-18T19:13:56.079Z,21.60
2023-01-18T19:17:00.147Z,16.05
2023-01-18T19:20:04.448Z,14.10
2023-01-18T19:23:06.994Z,10.65
2023-01-18T19:26:10.419Z,8.68
2023-01-18T19:29:13.534Z,7.37
2023-01-18T19:32:16.564Z,8.13
2023-01-18T19:35:20.498Z,8.07
2023-01-18T19:38:23.464Z,6.87
2023-01-18T19:41:27.718Z,9.10
2023-01-18T19:44:30.997Z,10.05
2023-01-18T19:47:33.876Z,10.18
2023-01-18T19:50:36.890Z,9.95
2023-01-18T19:53:40.454Z,8.00
2023-01-18T19:56:44.048Z,8.65
2023-01-18T19:59:46.835Z,8.77
2023-01-18T20:02:49.782Z,8.38
2023-01-18T20:05:53.138Z,8.65
2023-01-18T20:08:56.476Z,8.93
2023-01-18T20:11:59.798Z,13.23
2023-01-18T20:15:03.215Z,13.57
2023-01-18T20:18:07.273Z,17.95
2023-01-18T20:21:15.028Z,24.70
2023-01-18T20:24:18.048Z,16.92
2023-01-18T20:27:21.213Z,15.90
2023-01-18T20:30:24.085Z,14.43
2023-01-18T20:33:26.845Z,23.10
2023-01-18T20:36:29.774Z,21.23
2023-01-18T20:39:33.327Z,17.60
2023-01-18T20:42:36.333Z,12.80
2023-01-18T20:45:39.490Z,11.55
2023-01-18T20:48:42.496Z,10.70
2023-01-18T20:51:45.519Z,11.00
2023-01-18T20:54:48.198Z,11.27
2023-01-18T20:57:52.165Z,12.07
2023-01-18T21:00:55.091Z,14.17
2023-01-18T21:03:58.848Z,18.90
2023-01-18T21:07:01.567Z,22.35
2023-01-18T21:10:04.852Z,52.03
2023-01-18T21:13:09.313Z,63.33
2023-01-18T21:16:12.753Z,35.58
2023-01-18T21:19:16.211Z,19.67
2023-01-18T21:22:19.559Z,21.08
2023-01-18T21:25:22.311Z,26.33
2023-01-18T21:28:26.151Z,13.20
2023-01-18T21:31:29.053Z,12.73
2023-01-18T21:34:31.916Z,9.23
2023-01-18T21:37:37.449Z,8.00
2023-01-18T21:40:40.767Z,8.70
2023-01-18T21:44:01.990Z,8.43
2023-01-18T21:47:04.697Z,7.90
2023-01-18T21:50:26.387Z,8.20
2023-01-18T21:53:47.904Z,8.73
2023-01-18T21:56:52.693Z,9.43
2023-01-18T21:59:55.748Z,8.82
2023-01-18T22:02:58.420Z,7.93
2023-01-18T22:06:01.202Z,7.88
2023-01-18T22:09:05.116Z,7.80
2023-01-18T22:12:08.055Z,8.77
2023-01-18T22:15:11.752Z,8.88
2023-01-18T22:18:14.533Z,8.43
2023-01-18T22:21:17.626Z,8.75
2023-01-18T22:24:20.223Z,9.50
2023-01-18T22:27:23.114Z,8.98
2023-01-18T22:30:25.905Z,8.85
2023-01-18T22:33:28.777Z,8.40
2023-01-18T22:36:31.837Z,9.00
2023-01-18T22:39:34.471Z,9.15
2023-01-18T22:42:37.149Z,9.27
2023-01-18T22:45:39.867Z,7.22
2023-01-18T22:48:43.563Z,7.05
2023-01-18T22:51:46.359Z,7.22
2023-01-18T22:54:49.309Z,6.93
2023-01-18T22:57:51.784Z,7.80
2023-01-18T23:00:54.645Z,11.30
2023-01-18T23:04:00.932Z,11.43
2023-01-18T23:07:03.718Z,12.45
2023-01-18T23:10:06.602Z,10.57
2023-01-18T23:13:09.464Z,8.03
2023-01-18T23:16:33.659Z,7.70
2023-01-18T23:19:37.196Z,8.10
2023-01-18T23:22:39.930Z,7.75
2023-01-18T23:25:42.538Z,7.18
2023-01-18T23:28:45.387Z,7.55
2023-01-18T23:31:48.687Z,8.68
2023-01-18T23:34:51.295Z,9.63
2023-01-18T23:37:54.662Z,9.10
2023-01-18T23:41:16.542Z,11.07
2023-01-18T23:44:37.888Z,11.60
2023-01-18T23:47:59.875Z,12.02
2023-01-18T23:51:22.097Z,11.50
2023-01-18T23:54:24.623Z,10.70
2023-01-18T23:57:28.997Z,10.50
